Time;durP1;ratioP1;P1;durP2;ratioP2;P2;SDS_P1;SDS_P2;PMS_P1;PMS_P2;Temp;Humidity;BMP_temperature;BMP_pressure;BME280_temperature;BME280_humidity;BME280_pressure;Samples;Min_cycle;Max_cycle;Signal;HPM_P1;HPM_P2
2022/05/15 00:00:56;;;;;;;12.20;6.45;;;;;;;14.89;88.59;94979.16;5054374;28;20301;-83
2022/05/15 00:03:23;;;;;;;10.15;6.65;;;;;;;15.24;88.68;95045.38;5035958;28;20273;-83
2022/05/15 00:05:58;;;;;;;9.60;6.70;;;;;;;15.03;89.05;95022.94;5053462;28;20674;-84
2022/05/15 00:08:25;;;;;;;8.35;6.20;;;;;;;14.82;88.56;94986.44;5053874;28;20163;-83
2022/05/15 00:10:52;;;;;;;10.90;5.57;;;;;;;15.13;88.81;95044.38;5035775;28;20190;-83
2022/05/15 00:13:19;;;;;;;16.98;6.45;;;;;;;15.14;89.38;95045.97;5054031;28;20233;-83
2022/05/15 00:15:45;;;;;;;10.48;5.95;;;;;;;14.61;89.15;94964.84;5053730;28;20242;-82
2022/05/15 00:18:11;;;;;;;9.13;5.93;;;;;;;15.04;89.24;95032.53;5053639;28;20178;-83
2022/05/15 00:20:39;;;;;;;9.30;6.03;;;;;;;14.85;89.41;95009.84;5053227;28;20175;-83
2022/05/15 00:23:06;;;;;;;7.78;6.07;;;;;;;14.89;89.67;95022.38;5052773;28;20171;-83
2022/05/15 00:25:32;;;;;;;12.90;7.47;;;;;;;14.98;89.66;95041.38;5052723;28;20195;-83
2022/05/15 00:27:58;;;;;;;8.27;6.50;;;;;;;14.61;89.83;94983.38;5051794;28;20677;-83
2022/05/15 00:30:23;;;;;;;9.63;6.03;;;;;;;14.56;89.70;94979.81;5051113;28;20171;-83
2022/05/15 00:32:49;;;;;;;10.32;6.78;;;;;;;14.85;89.31;95029.19;5052009;28;20609;-83
2022/05/15 00:35:15;;;;;;;8.70;6.50;;;;;;;14.93;89.64;95046.59;5052920;28;20557;-83
2022/05/15 00:37:40;;;;;;;7.77;5.53;;;;;;;14.58;89.68;94986.50;5035415;28;20175;-83
2022/05/15 00:40:08;;;;;;;11.27;6.80;;;;;;;14.93;88.86;95047.41;5035316;28;20213;-83
2022/05/15 00:42:34;;;;;;;10.80;7.20;;;;;;;14.93;89.25;95046.59;5035629;28;20167;-83
2022/05/15 00:45:00;;;;;;;7.80;5.87;;;;;;;14.53;89.20;94986.34;5053636;28;20197;-83
2022/05/15 00:47:25;;;;;;;10.93;7.38;;;;;;;14.80;89.29;95036.22;5053338;28;20199;-82
2022/05/15 00:49:54;;;;;;;12.52;6.40;;;;;;;14.42;89.41;94978.44;5053692;28;20179;-83
2022/05/15 00:52:25;;;;;;;9.67;6.30;;;;;;;14.85;89.40;95053.06;5035186;28;20175;-83
2022/05/15 00:55:02;;;;;;;8.48;6.22;;;;;;;14.87;89.29;95055.47;5053598;28;20151;-83
2022/05/15 00:57:38;;;;;;;8.93;5.37;;;;;;;14.80;88.87;95054.78;5053000;28;20234;-83
2022/05/15 01:00:19;;;;;;;8.07;5.82;;;;;;;14.77;88.97;95042.00;5052649;28;20901;-83
2022/05/15 01:02:52;;;;;;;8.53;5.73;;;;;;;14.73;88.75;95039.00;5034231;28;20197;-82
2022/05/15 01:05:18;;;;;;;7.13;5.53;;;;;;;14.77;89.06;95047.31;5051961;28;20191;-83
2022/05/15 01:07:44;;;;;;;7.45;6.18;;;;;;;14.42;88.88;94994.34;5051915;28;21085;-82
2022/05/15 01:10:10;;;;;;;7.90;5.73;;;;;;;14.52;88.86;95021.88;5052379;28;20179;-83
2022/05/15 01:12:40;;;;;;;9.07;5.80;;;;;;;14.40;89.13;95014.94;5034787;28;20175;-82
2022/05/15 01:15:08;;;;;;;8.13;5.63;;;;;;;14.61;89.09;95046.97;5034717;28;20945;-82
2022/05/15 01:17:33;;;;;;;8.63;6.33;;;;;;;14.60;89.39;95041.91;5052860;28;20164;-82
2022/05/15 01:20:05;;;;;;;8.87;5.50;;;;;;;14.53;89.42;95041.22;5052467;28;20254;-82
2022/05/15 01:22:31;;;;;;;8.37;6.17;;;;;;;14.21;89.56;94998.31;5034553;28;20175;-83
2022/05/15 01:24:57;;;;;;;10.23;5.93;;;;;;;14.16;89.77;95001.66;5052316;28;20199;-83
2022/05/15 01:27:22;;;;;;;8.73;5.50;;;;;;;13.87;89.75;94963.66;5034573;28;20163;-83
2022/05/15 01:29:49;;;;;;;8.87;6.00;;;;;;;14.41;89.84;95045.69;5052364;28;20201;-83
2022/05/15 01:32:15;;;;;;;7.80;5.53;;;;;;;14.12;89.39;95002.34;5034439;28;20172;-83
2022/05/15 01:34:41;;;;;;;12.70;5.97;;;;;;;14.13;89.53;95007.41;5052223;28;20225;-83
2022/05/15 01:37:07;;;;;;;9.67;5.83;;;;;;;14.28;89.44;95034.25;5052291;28;20172;-83
2022/05/15 01:39:33;;;;;;;13.13;5.97;;;;;;;14.30;89.71;95044.59;5052152;28;20606;-83
2022/05/15 01:42:00;;;;;;;10.03;6.00;;;;;;;14.26;89.67;95046.13;5052502;28;20190;-83
2022/05/15 01:44:26;;;;;;;8.60;6.07;;;;;;;14.02;89.21;95010.03;5051095;28;20165;-83
2022/05/15 01:46:51;;;;;;;14.03;5.77;;;;;;;14.21;89.83;95045.97;5034197;28;20171;-83
2022/05/15 01:49:17;;;;;;;11.47;5.70;;;;;;;14.21;89.51;95046.78;5034136;28;20212;-83
2022/05/15 01:51:44;;;;;;;6.90;5.40;;;;;;;14.06;89.47;95032.38;5052008;28;20158;-83
2022/05/15 01:54:10;;;;;;;9.33;5.37;;;;;;;14.11;89.82;95051.81;5032808;28;20308;-83
2022/05/15 01:56:37;;;;;;;8.20;6.00;;;;;;;13.52;89.45;94947.69;5040454;28;20168;-83
2022/05/15 01:59:03;;;;;;;8.53;5.30;;;;;;;13.76;89.36;94990.88;5043094;28;20175;-83
2022/05/15 02:01:29;;;;;;;7.33;5.30;;;;;;;13.66;89.04;94979.25;5050027;28;20167;-83
2022/05/15 02:03:54;;;;;;;8.33;5.50;;;;;;;13.98;89.54;95044.91;5045222;28;20649;-83
2022/05/15 02:06:20;;;;;;;6.57;5.40;;;;;;;13.63;89.09;94985.81;5022079;28;20190;-83
2022/05/15 02:08:45;;;;;;;7.03;5.20;;;;;;;14.02;88.70;95047.09;5042490;28;20182;-83
2022/05/15 02:11:11;;;;;;;8.20;6.00;;;;;;;13.83;88.43;95010.13;5031506;28;20163;-84
2022/05/15 02:13:37;;;;;;;10.50;5.07;;;;;;;13.67;88.37;94986.94;5051535;28;20306;-83
2022/05/15 02:16:02;;;;;;;10.50;5.00;;;;;;;14.01;88.03;95046.28;5051719;28;20234;-83
2022/05/15 02:18:28;;;;;;;6.73;4.70;;;;;;;13.60;88.00;94983.59;5051727;28;20165;-83
2022/05/15 02:20:54;;;;;;;7.30;5.10;;;;;;;13.82;87.97;95027.03;5051707;28;20237;-83
2022/05/15 02:23:20;;;;;;;10.40;5.10;;;;;;;13.90;88.35;95050.53;5051662;28;20159;-83
2022/05/15 02:25:46;;;;;;;14.23;5.27;;;;;;;13.59;88.62;95005.78;5051202;28;20283;-82
2022/05/15 02:28:12;;;;;;;7.43;5.20;;;;;;;13.47;88.67;94981.97;5051001;28;20262;-83
2022/05/15 02:30:37;;;;;;;6.77;4.70;;;;;;;13.28;88.19;94958.44;5050835;28;20202;-83
2022/05/15 02:33:03;;;;;;;9.73;4.57;;;;;;;13.65;88.58;95012.84;5032821;28;20171;-84
2022/05/15 02:35:28;;;;;;;7.23;4.80;;;;;;;13.56;88.17;95012.34;5051941;28;20225;-83
2022/05/15 02:37:54;;;;;;;11.10;5.43;;;;;;;13.44;88.50;94997.47;5051813;28;20166;-83
2022/05/15 02:40:23;;;;;;;7.47;4.53;;;;;;;13.80;88.69;95058.22;5051807;28;20551;-83
2022/05/15 02:42:49;;;;;;;7.27;5.00;;;;;;;13.54;88.58;95027.63;5051681;28;20194;-83
2022/05/15 02:45:15;;;;;;;5.63;4.50;;;;;;;13.66;88.98;95053.34;5033603;28;20285;-84
2022/05/15 02:47:41;;;;;;;5.87;4.50;;;;;;;13.52;89.25;95036.81;5052021;28;20194;-84
2022/05/15 02:52:54;;;;;;;7.13;4.90;;;;;;;13.78;88.97;95067.41;5051463;28;20159;-83
2022/05/15 02:55:21;;;;;;;12.87;6.50;;;;;;;13.76;89.14;95064.97;5051352;28;20702;-83
2022/05/15 02:57:47;;;;;;;8.30;5.07;;;;;;;13.66;89.36;95064.72;5055227;28;20181;-83
2022/05/15 03:00:14;;;;;;;13.20;6.40;;;;;;;13.68;89.09;95073.22;5054535;28;20218;-83
2022/05/15 03:02:40;;;;;;;8.13;5.50;;;;;;;13.61;89.47;95075.16;5026876;28;20175;-83
2022/05/15 03:05:08;;;;;;;7.70;4.90;;;;;;;13.58;89.81;95071.13;5041630;28;20198;-83
2022/05/15 03:07:33;;;;;;;11.40;6.20;;;;;;;13.59;89.92;95080.66;5036431;28;20175;-83
2022/05/15 03:09:59;;;;;;;6.03;5.10;;;;;;;13.59;89.86;95075.38;5055138;28;20653;-82
2022/05/15 03:12:24;;;;;;;8.67;5.20;;;;;;;13.59;89.20;95077.22;5037007;28;20197;-83
2022/05/15 03:14:50;;;;;;;7.87;5.30;;;;;;;13.51;89.68;95069.59;5036893;28;20234;-83
2022/05/15 03:17:17;;;;;;;9.10;5.00;;;;;;;13.23;89.55;95023.34;5055477;28;20155;-83
2022/05/15 03:19:43;;;;;;;7.97;5.50;;;;;;;13.43;89.27;95054.03;5054858;28;20159;-83
2022/05/15 03:22:09;;;;;;;9.43;5.37;;;;;;;13.32;89.34;95036.28;5054485;28;20175;-83
2022/05/15 03:24:35;;;;;;;9.53;4.77;;;;;;;13.63;89.04;95080.22;5053895;28;21160;-83
2022/05/15 03:27:00;;;;;;;7.47;4.90;;;;;;;13.31;88.99;95024.09;5036064;28;20173;-82
2022/05/15 03:29:27;;;;;;;7.13;4.33;;;;;;;13.67;88.82;95086.66;5053712;28;20301;-82
2022/05/15 03:31:53;;;;;;;7.67;5.47;;;;;;;13.34;88.75;95032.38;5034757;28;20214;-82
2022/05/15 03:34:18;;;;;;;7.77;4.80;;;;;;;13.10;88.89;94994.44;5016904;28;20659;-83
2022/05/15 03:36:46;;;;;;;8.53;4.73;;;;;;;13.70;89.00;95084.41;5034516;28;20728;-83
2022/05/15 03:39:13;;;;;;;12.67;4.80;;;;;;;13.73;88.92;95085.78;5034545;28;20187;-83
2022/05/15 03:41:39;;;;;;;6.13;4.63;;;;;;;13.37;89.18;95017.91;5016738;28;20175;-83
2022/05/15 03:44:05;;;;;;;7.33;5.37;;;;;;;13.83;89.06;95078.94;5043116;28;20743;-83
2022/05/15 03:46:31;;;;;;;6.63;4.60;;;;;;;13.78;88.65;95057.63;5053845;28;20187;-84
2022/05/15 03:48:58;;;;;;;5.40;4.60;;;;;;;14.10;88.25;95089.94;5053691;28;20225;-83
2022/05/15 03:51:24;;;;;;;7.73;5.07;;;;;;;13.73;88.13;95011.72;5053457;28;20163;-83
2022/05/15 03:53:50;;;;;;;7.00;4.70;;;;;;;14.34;88.09;95090.81;5054047;28;20700;-83
2022/05/15 03:56:16;;;;;;;9.73;5.53;;;;;;;14.22;87.07;95042.28;5053368;28;20167;-83
2022/05/15 03:58:43;;;;;;;10.47;5.53;;;;;;;14.51;87.16;95061.81;5053178;28;20179;-83
2022/05/15 04:01:08;;;;;;;8.20;5.00;;;;;;;14.62;86.73;95059.16;5053171;28;20185;-83
2022/05/15 04:03:34;;;;;;;7.20;4.60;;;;;;;14.56;86.20;95033.59;5053422;28;20662;-83
2022/05/15 04:06:00;;;;;;;8.40;4.77;;;;;;;14.56;85.66;95008.94;5053794;28;20228;-83
2022/05/15 04:08:27;;;;;;;9.57;5.70;;;;;;;14.85;85.07;95041.66;5052510;28;20171;-83
2022/05/15 04:10:53;;;;;;;14.53;5.47;;;;;;;15.12;84.41;95057.88;5035258;28;20167;-83
2022/05/15 04:13:19;;;;;;;8.87;4.80;;;;;;;15.20;83.55;95060.16;5052775;28;20218;-83
2022/05/15 04:15:44;;;;;;;12.00;4.23;;;;;;;15.32;82.52;95045.81;5052892;28;20167;-83
2022/05/15 04:18:10;;;;;;;7.13;5.50;;;;;;;15.57;82.84;95056.13;5035856;28;20309;-83
2022/05/15 04:20:36;;;;;;;10.88;5.25;;;;;;;15.67;81.17;95047.56;5053604;28;20195;-83
2022/05/15 04:23:02;;;;;;;10.77;5.15;;;;;;;15.99;82.73;95064.63;5053623;28;20293;-83
2022/05/15 04:25:27;;;;;;;10.43;5.20;;;;;;;16.34;81.94;95092.84;5053780;28;20207;-83
2022/05/15 04:27:53;;;;;;;10.27;4.95;;;;;;;16.73;81.82;95113.16;5053486;28;20368;-83
2022/05/15 04:30:24;;;;;;;10.32;5.32;;;;;;;17.03;81.03;95106.69;5053766;28;20159;-82
2022/05/15 04:32:53;;;;;;;10.20;5.05;;;;;;;17.42;78.12;95116.28;5053677;28;20194;-82
2022/05/15 04:35:21;;;;;;;7.90;5.32;;;;;;;17.76;76.77;95114.31;5053356;28;20250;-82
2022/05/15 04:37:47;;;;;;;9.73;5.55;;;;;;;17.91;73.20;95087.84;5053307;28;20175;-82
2022/05/15 04:40:13;;;;;;;10.25;4.80;;;;;;;18.54;75.39;95115.63;5053622;28;20197;-82
2022/05/15 04:42:39;;;;;;;12.38;4.30;;;;;;;18.94;71.92;95117.06;5052677;28;20658;-83
2022/05/15 04:45:06;;;;;;;7.15;4.90;;;;;;;19.07;73.21;95079.25;5052464;28;20198;-82
2022/05/15 04:47:32;;;;;;;5.93;4.28;;;;;;;19.41;72.10;95069.00;5052347;28;20202;-82
2022/05/15 04:49:58;;;;;;;7.60;4.32;;;;;;;19.68;69.48;95061.69;5041619;28;20219;-82
2022/05/15 04:52:24;;;;;;;13.25;4.97;;;;;;;20.36;68.50;95110.50;5046824;28;20627;-83
2022/05/15 04:54:49;;;;;;;4.90;3.95;;;;;;;20.71;66.76;95086.47;5033705;28;20200;-79
2022/05/15 04:57:15;;;;;;;7.75;4.38;;;;;;;21.37;65.47;95128.44;5033606;28;20662;-80
2022/05/15 04:59:40;;;;;;;5.28;4.07;;;;;;;21.87;63.79;95122.13;5033298;28;20229;-79
2022/05/15 05:02:05;;;;;;;12.82;4.65;;;;;;;22.36;62.62;95132.91;5033283;28;20162;-79
2022/05/15 05:04:31;;;;;;;9.07;3.83;;;;;;;22.69;60.69;95101.78;5039482;28;20743;-79
2022/05/15 05:06:57;;;;;;;8.10;4.40;;;;;;;23.23;59.37;95123.13;5041309;28;20669;-79
2022/05/15 05:09:23;;;;;;;8.70;5.15;;;;;;;23.50;57.27;95087.66;5042741;28;20254;-79
2022/05/15 05:11:48;;;;;;;9.85;4.47;;;;;;;24.00;56.14;95096.19;5044609;28;20313;-79
2022/05/15 05:14:14;;;;;;;6.40;4.40;;;;;;;24.46;56.21;95096.41;5052569;28;20605;-79
2022/05/15 05:16:39;;;;;;;9.25;5.43;;;;;;;25.05;55.39;95094.97;5046618;28;20258;-79
2022/05/15 05:19:05;;;;;;;9.32;6.32;;;;;;;25.63;53.26;95135.72;5040753;28;20186;-79
2022/05/15 05:21:30;;;;;;;12.27;8.02;;;;;;;26.25;51.69;95117.19;5051520;28;20170;-79
2022/05/15 05:23:56;;;;;;;10.77;5.60;;;;;;;26.71;50.09;95090.00;5051330;28;20946;-79
2022/05/15 05:26:22;;;;;;;16.70;8.38;;;;;;;27.13;50.59;95088.72;5052573;28;20690;-79
2022/05/15 05:28:47;;;;;;;12.35;7.80;;;;;;;27.59;48.91;95076.72;5052484;28;20147;-79
2022/05/15 05:31:14;;;;;;;41.05;25.38;;;;;;;28.09;47.45;95088.00;5052932;28;20204;-79
2022/05/15 05:33:40;;;;;;;21.58;14.07;;;;;;;28.87;45.06;95126.88;5052245;28;20253;-81
2022/05/15 05:36:06;;;;;;;12.70;9.32;;;;;;;28.74;43.92;95038.34;5052243;28;20305;-82
2022/05/15 05:38:32;;;;;;;10.20;6.22;;;;;;;29.63;42.65;95127.06;5034372;28;20159;-82
2022/05/15 05:40:58;;;;;;;17.50;8.23;;;;;;;29.78;42.12;95114.88;5052153;28;20194;-82
2022/05/15 05:43:23;;;;;;;14.10;6.88;;;;;;;29.68;43.11;95090.81;5051508;28;20252;-82
2022/05/15 05:45:48;;;;;;;10.07;4.82;;;;;;;29.73;42.21;95072.44;5032975;28;20582;-82
2022/05/15 05:48:14;;;;;;;9.60;4.13;;;;;;;29.81;41.78;95077.03;5051216;28;20194;-82
2022/05/15 05:50:39;;;;;;;9.00;4.80;;;;;;;30.07;41.34;95131.25;5033215;28;20178;-82
2022/05/15 05:53:06;;;;;;;8.38;5.53;;;;;;;29.98;42.88;95106.03;5036882;28;20186;-82
2022/05/15 05:55:32;;;;;;;8.15;4.80;;;;;;;29.81;41.36;95054.50;5041793;28;20187;-82
2022/05/15 05:57:57;;;;;;;7.13;4.00;;;;;;;30.09;41.39;95117.34;5039934;28;20550;-82
2022/05/15 06:00:29;;;;;;;14.30;5.90;;;;;;;29.89;42.29;95105.25;5039983;28;20197;-81
2022/05/15 06:04:39;;;;;;;14.40;7.85;;;;;;;29.76;40.97;95115.19;5050962;28;20171;-81
2022/05/15 06:05:41;;;;;;;11.77;5.70;;;;;;;29.57;42.68;95117.53;5051652;28;20202;-81
2022/05/15 06:08:07;;;;;;;8.50;4.13;;;;;;;29.14;42.76;95096.69;5051677;28;20167;-82
2022/05/15 06:10:32;;;;;;;11.27;3.53;;;;;;;29.02;42.49;95068.63;5047397;28;20168;-82
2022/05/15 06:12:58;;;;;;;7.20;3.22;;;;;;;28.86;40.16;95125.28;5037145;28;20717;-81
2022/05/15 06:15:23;;;;;;;10.05;3.80;;;;;;;28.42;40.33;95097.34;5050607;28;20159;-82
2022/05/15 06:17:49;;;;;;;8.25;3.70;;;;;;;28.14;43.33;95077.81;5039584;28;20164;-81
2022/05/15 06:20:14;;;;;;;5.15;3.45;;;;;;;27.91;43.58;95051.19;5043071;28;20646;-82
2022/05/15 06:22:40;;;;;;;9.98;3.55;;;;;;;28.43;43.39;95126.03;5042197;28;20555;-82
2022/05/15 06:25:05;;;;;;;6.45;3.40;;;;;;;28.35;43.38;95128.72;5026899;28;20273;-82
2022/05/15 06:27:31;;;;;;;4.72;3.08;;;;;;;27.64;43.74;95076.56;5050525;28;20183;-82
2022/05/15 06:29:58;;;;;;;5.97;3.55;;;;;;;27.70;44.70;95132.94;5042693;28;20171;-82
2022/05/15 06:32:25;;;;;;;9.55;4.45;;;;;;;27.30;45.65;95101.53;5036091;28;20175;-82
2022/05/15 06:34:50;;;;;;;7.60;3.92;;;;;;;26.78;45.63;95098.47;5054890;28;20227;-82
2022/05/15 06:37:16;;;;;;;8.07;3.22;;;;;;;26.58;45.63;95134.06;5054565;28;20179;-82
2022/05/15 06:39:41;;;;;;;6.43;3.17;;;;;;;25.86;48.73;95048.38;5053003;28;20190;-82
2022/05/15 06:42:08;;;;;;;6.60;3.90;;;;;;;26.09;49.01;95078.94;5028315;28;20655;-82
2022/05/15 06:44:33;;;;;;;5.43;3.45;;;;;;;26.15;49.15;95099.31;5030303;28;20175;-82
2022/05/15 06:46:59;;;;;;;8.05;3.47;;;;;;;26.08;48.08;95098.94;5054203;28;20167;-82
2022/05/15 06:49:24;;;;;;;8.15;3.00;;;;;;;25.69;48.47;95134.50;5028639;28;20168;-82
2022/05/15 06:51:49;;;;;;;8.35;4.15;;;;;;;25.16;49.60;95072.13;5041197;28;20183;-82
2022/05/15 06:54:24;;;;;;;7.50;3.40;;;;;;;25.30;52.37;95088.31;5052292;28;20194;-81
2022/05/15 06:59:34;;;;;;;3.17;2.60;;;;;;;26.20;48.77;95120.03;5054121;28;20166;-80
2022/05/15 07:02:00;;;;;;;6.32;2.90;;;;;;;26.59;50.32;95103.25;5054268;28;20212;-80
2022/05/15 07:04:26;;;;;;;5.85;3.85;;;;;;;26.80;46.55;95098.16;5055265;28;20163;-82
2022/05/15 07:06:51;;;;;;;7.05;2.72;;;;;;;26.89;46.01;95112.53;5054984;28;20647;-83
2022/05/15 07:09:17;;;;;;;7.05;2.90;;;;;;;26.83;48.70;95128.06;5043888;28;20179;-82
2022/05/15 07:11:42;;;;;;;8.35;3.22;;;;;;;26.67;47.73;95084.41;5047268;28;20172;-82
2022/05/15 07:14:09;;;;;;;7.70;3.38;;;;;;;26.70;46.69;95093.00;5047116;28;20225;-81
2022/05/15 07:16:35;;;;;;;6.95;3.17;;;;;;;27.21;48.63;95125.81;5053968;28;20250;-82
2022/05/15 07:19:01;;;;;;;6.13;2.70;;;;;;;26.97;46.36;95063.97;5053747;28;20168;-81
2022/05/15 07:21:26;;;;;;;4.10;2.70;;;;;;;27.07;45.03;95103.44;5053716;28;20178;-82
2022/05/15 07:23:52;;;;;;;6.78;3.08;;;;;;;27.13;44.00;95133.88;5053993;28;20634;-82
2022/05/15 07:26:17;;;;;;;14.30;3.08;;;;;;;26.66;43.00;95111.72;5043278;28;20745;-82
2022/05/15 07:28:45;;;;;;;2.60;2.22;;;;;;;26.42;44.11;95113.88;5033256;28;20186;-81
2022/05/15 07:31:11;;;;;;;3.25;2.75;;;;;;;26.51;42.39;95145.28;5043963;28;20171;-82
2022/05/15 07:33:36;;;;;;;6.18;2.15;;;;;;;26.54;44.67;95106.88;5041986;28;20178;-82
2022/05/15 07:36:02;;;;;;;4.43;2.25;;;;;;;27.13;44.40;95134.69;5046686;28;20180;-81
2022/05/15 07:38:27;;;;;;;4.80;2.78;;;;;;;27.10;44.47;95091.22;5051025;28;20234;-84
2022/05/15 07:40:53;;;;;;;6.05;2.08;;;;;;;27.37;41.52;95096.47;5036560;28;20577;-84
2022/05/15 07:43:19;;;;;;;3.13;1.83;;;;;;;27.52;40.55;95087.94;5048136;28;20163;-82
2022/05/15 07:45:45;;;;;;;2.70;2.20;;;;;;;27.50;39.29;95075.88;5047653;28;20223;-81
2022/05/15 07:48:11;;;;;;;3.55;1.98;;;;;;;27.74;40.88;95111.47;5039697;28;20261;-80
2022/05/15 07:50:38;;;;;;;5.68;2.25;;;;;;;27.80;40.63;95093.97;5047107;28;20175;-80
2022/05/15 07:53:04;;;;;;;5.35;2.85;;;;;;;28.22;38.62;95137.75;5052572;28;20742;-81
2022/05/15 07:55:29;;;;;;;4.78;2.63;;;;;;;28.09;40.13;95105.06;5029598;28;20190;-81
2022/05/15 07:57:55;;;;;;;4.75;2.47;;;;;;;28.54;40.85;95126.53;5031307;28;20247;-80
2022/05/15 08:00:21;;;;;;;6.28;2.78;;;;;;;28.58;40.64;95091.44;5052392;28;20262;-80
2022/05/15 08:02:46;;;;;;;5.63;2.42;;;;;;;28.78;38.32;95139.63;5050612;28;20193;-79
2022/05/15 08:08:02;;;;;;;3.50;2.08;;;;;;;28.12;39.68;95112.53;5046309;28;20576;-82
2022/05/15 08:10:32;;;;;;;5.72;2.20;;;;;;;28.31;41.89;95133.16;5034023;28;20560;-79
2022/05/15 08:12:58;;;;;;;5.57;2.28;;;;;;;28.48;39.75;95152.94;5054229;28;20215;-79
2022/05/15 08:15:24;;;;;;;2.60;2.10;;;;;;;28.14;38.38;95090.56;5055972;28;20191;-79
2022/05/15 08:17:50;;;;;;;7.32;2.65;;;;;;;28.23;36.85;95115.78;5030989;28;20202;-78
2022/05/15 08:25:46;;;;;;;5.82;2.10;;;;;;;28.14;37.47;95128.47;5047290;28;20202;-79
2022/05/15 08:28:13;;;;;;;8.82;2.35;;;;;;;28.17;38.08;95165.81;5033913;28;20183;-82
2022/05/15 08:30:39;;;;;;;4.72;2.33;;;;;;;27.84;38.64;95173.47;5046291;28;20175;-81
2022/05/15 08:33:05;;;;;;;4.68;2.30;;;;;;;27.46;39.66;95142.50;5050563;28;20261;-80
2022/05/15 08:35:31;;;;;;;3.70;1.98;;;;;;;27.37;40.95;95131.63;5051596;28;20168;-81
2022/05/15 08:37:57;;;;;;;4.85;2.00;;;;;;;27.63;38.91;95170.47;5032734;28;20194;-82
2022/05/15 08:40:32;;;;;;;5.32;2.38;;;;;;;27.14;38.96;95103.84;5043784;28;20578;-81
2022/05/15 08:42:59;;;;;;;6.95;2.70;;;;;;;27.21;37.91;95152.84;5046584;28;20194;-80
2022/05/15 08:45:32;;;;;;;6.00;2.13;;;;;;;26.32;39.21;95124.91;5051711;28;20225;-79
2022/05/15 08:48:08;;;;;;;1.90;1.75;;;;;;;26.50;40.77;95162.59;5047548;28;20217;-81
2022/05/15 08:50:38;;;;;;;7.03;2.10;;;;;;;26.05;40.81;95093.34;5044115;28;20170;-86
2022/05/15 08:53:14;;;;;;;10.63;2.60;;;;;;;26.62;44.78;95170.97;5034141;28;20191;-83
2022/05/15 08:56:00;;;;;;;8.10;4.00;;;;;;;26.82;39.61;95158.88;5049490;28;20166;-85
2022/05/15 08:58:48;;;;;;;7.40;2.65;;;;;;;27.16;37.57;95163.78;5033882;28;20163;-78
2022/05/15 09:01:19;;;;;;;3.40;1.83;;;;;;;27.20;37.13;95159.38;5033348;28;20167;-81
2022/05/15 09:03:44;;;;;;;4.72;1.92;;;;;;;27.52;38.92;95173.72;5034018;28;20207;-80
2022/05/15 09:06:16;;;;;;;3.83;2.10;;;;;;;27.42;36.65;95161.25;5050195;28;20245;-81
2022/05/15 09:08:50;;;;;;;2.22;1.60;;;;;;;27.42;38.53;95164.75;5033162;28;20214;-83
2022/05/15 09:11:32;;;;;;;4.22;1.50;;;;;;;27.51;35.38;95139.66;5029859;28;20575;-84
2022/05/15 09:14:25;;;;;;;6.05;1.60;;;;;;;27.49;36.16;95150.81;5028997;28;20234;-82
2022/05/15 09:16:58;;;;;;;5.63;1.80;;;;;;;27.66;36.81;95148.22;5043214;28;20266;-80
2022/05/15 09:19:24;;;;;;;5.30;1.80;;;;;;;27.86;37.02;95152.25;5039716;28;20169;-79
2022/05/15 09:21:56;;;;;;;4.00;1.67;;;;;;;27.87;35.83;95156.56;5050609;28;20265;-79
2022/05/15 09:24:43;;;;;;;3.92;1.65;;;;;;;27.75;35.28;95146.34;5046181;28;20179;-80
2022/05/15 09:27:24;;;;;;;7.30;1.95;;;;;;;27.74;34.44;95149.38;5047768;28;20171;-79
2022/05/15 09:29:58;;;;;;;8.10;2.35;;;;;;;27.68;35.66;95140.56;5031071;28;20705;-83
2022/05/15 09:32:42;;;;;;;6.72;1.65;;;;;;;27.84;33.68;95159.13;5050524;28;20171;-80
2022/05/15 09:35:13;;;;;;;3.53;1.77;;;;;;;27.81;36.49;95148.91;5051667;28;20171;-78
2022/05/15 09:43:30;;;;;;;4.68;1.77;;;;;;;27.76;35.22;95145.22;5049222;28;20197;-77
2022/05/15 09:43:33;;;;;;;5.13;1.85;;;;;;;27.57;35.29;95147.38;5046685;28;20171;-80
2022/05/15 09:46:20;;;;;;;10.27;1.85;;;;;;;27.11;35.25;95145.00;5030338;28;20209;-77
2022/05/15 09:48:55;;;;;;;2.78;2.13;;;;;;;26.88;36.69;95148.78;5042923;28;20178;-78
2022/05/15 09:51:44;;;;;;;2.15;1.35;;;;;;;26.82;36.87;95122.97;5026080;28;20214;-78
2022/05/15 09:54:27;;;;;;;6.18;2.10;;;;;;;27.06;37.33;95141.63;5045160;28;20269;-78
2022/05/15 09:57:13;;;;;;;4.25;2.10;;;;;;;27.17;38.01;95122.13;5040929;28;20174;-77
2022/05/15 09:59:39;;;;;;;6.82;2.08;;;;;;;27.29;37.71;95140.50;5032242;28;20182;-77
2022/05/15 10:02:05;;;;;;;5.65;1.70;;;;;;;27.12;36.62;95130.38;5047928;28;20731;-81
2022/05/15 10:04:38;;;;;;;8.02;1.70;;;;;;;27.21;39.81;95133.13;5041612;28;20190;-84
2022/05/15 10:07:07;;;;;;;7.45;1.65;;;;;;;27.18;39.63;95107.50;5049653;28;20608;-84
2022/05/15 10:09:37;;;;;;;2.70;1.80;;;;;;;27.20;35.20;95110.69;5029794;28;20617;-80
2022/05/15 10:12:06;;;;;;;5.20;2.30;;;;;;;27.14;37.24;95133.56;5047393;28;20175;-83
2022/05/15 10:14:40;;;;;;;4.57;1.70;;;;;;;27.18;39.05;95139.16;5047174;28;20223;-82
2022/05/15 10:17:06;;;;;;;3.40;1.40;;;;;;;27.09;37.12;95130.97;5050240;28;20183;-79
2022/05/15 10:19:44;;;;;;;2.55;1.75;;;;;;;27.09;37.04;95143.69;5027753;28;20270;-79
2022/05/15 10:23:02;;;;;;;6.40;2.05;;;;;;;27.08;37.07;95139.38;5049990;28;20182;-82
2022/05/15 10:25:48;;;;;;;2.10;1.73;;;;;;;27.01;36.82;95119.00;5004730;28;20290;-82
2022/05/15 10:28:30;;;;;;;4.35;1.98;;;;;;;27.04;37.88;95136.53;5050491;28;20175;-81
2022/05/15 10:31:24;;;;;;;6.13;1.90;;;;;;;27.03;35.89;95124.09;5050079;28;20710;-81
2022/05/15 10:34:10;;;;;;;7.13;2.45;;;;;;;26.95;36.24;95122.94;5047544;28;20218;-80
2022/05/15 10:36:46;;;;;;;5.63;1.95;;;;;;;26.98;37.05;95121.53;5048628;28;20570;-80
2022/05/15 10:39:26;;;;;;;5.90;1.80;;;;;;;26.98;37.96;95125.00;5050288;28;20183;-77
2022/05/15 10:42:07;;;;;;;4.43;1.73;;;;;;;26.91;38.60;95123.84;5050182;28;20175;-79
2022/05/15 10:44:54;;;;;;;4.05;1.95;;;;;;;26.90;39.91;95119.50;5023682;28;20194;-77
2022/05/15 10:47:27;;;;;;;3.03;1.58;;;;;;;26.75;37.60;95115.28;5046967;28;20171;-77
2022/05/15 10:50:12;;;;;;;4.93;2.03;;;;;;;26.73;36.80;95114.78;5050315;28;20603;-78
2022/05/15 10:52:44;;;;;;;3.65;1.80;;;;;;;26.66;37.05;95120.63;5040019;28;20176;-79
2022/05/15 10:58:39;;;;;;;4.45;2.15;;;;;;;26.53;37.49;95117.97;5046195;28;20768;-79
2022/05/15 11:01:13;;;;;;;5.28;2.28;;;;;;;26.49;40.36;95119.66;5040911;28;20195;-79
2022/05/15 11:03:59;;;;;;;3.33;1.60;;;;;;;26.51;38.24;95112.88;5047367;28;20321;-80
2022/05/15 11:06:49;;;;;;;3.35;1.80;;;;;;;26.38;40.65;95119.09;5049686;28;20199;-79
2022/05/15 11:09:30;;;;;;;3.30;1.85;;;;;;;26.40;41.56;95098.00;5043246;28;20176;-79
2022/05/15 11:12:34;;;;;;;5.28;2.00;;;;;;;26.51;39.39;95112.06;5047461;28;20163;-79
2022/05/15 11:15:25;;;;;;;5.88;2.35;;;;;;;25.80;39.15;95092.75;5022718;28;20218;-79
2022/05/15 11:18:22;;;;;;;6.35;1.70;;;;;;;25.78;42.03;95110.34;5027181;28;20174;-79
2022/05/15 11:20:56;;;;;;;3.88;2.00;;;;;;;26.00;41.42;95102.34;5019730;28;20186;-79
2022/05/15 11:23:29;;;;;;;5.80;1.70;;;;;;;26.19;41.69;95099.53;5051420;28;20174;-80
2022/05/15 11:26:08;;;;;;;5.88;2.88;;;;;;;26.42;41.65;95105.78;5048358;28;20203;-81
2022/05/15 11:28:42;;;;;;;6.80;2.55;;;;;;;26.15;37.53;95074.22;5053009;28;20166;-80
2022/05/15 11:31:22;;;;;;;2.70;1.70;;;;;;;26.42;40.37;95090.38;5053491;28;20166;-79
2022/05/15 11:33:54;;;;;;;7.55;2.40;;;;;;;26.38;41.50;95085.91;5051323;28;20183;-80
2022/05/15 11:36:29;;;;;;;8.10;2.75;;;;;;;26.37;39.26;95087.81;5034923;28;21001;-81
2022/05/15 11:39:22;;;;;;;3.97;2.22;;;;;;;26.32;39.62;95077.13;5028103;28;20213;-80
2022/05/15 11:44:41;;;;;;;5.00;2.17;;;;;;;26.32;42.56;95079.00;5053090;28;20202;-81
2022/05/15 11:47:29;;;;;;;6.07;2.75;;;;;;;26.55;42.38;95070.63;5033224;28;20212;-80
2022/05/15 11:49:57;;;;;;;5.78;2.20;;;;;;;26.82;42.15;95085.13;5048712;28;20252;-80
2022/05/15 11:52:52;;;;;;;6.95;2.13;;;;;;;26.89;40.05;95074.72;5033514;28;20569;-79
2022/05/15 11:55:35;;;;;;;4.60;2.00;;;;;;;26.94;37.77;95077.31;5051866;28;20270;-79
2022/05/15 11:58:36;;;;;;;9.43;2.38;;;;;;;27.02;41.17;95084.66;5052198;28;20187;-80
2022/05/15 12:01:23;;;;;;;8.10;2.70;;;;;;;27.14;41.37;95074.09;5049116;28;20174;-79
2022/05/15 12:03:56;;;;;;;9.55;2.22;;;;;;;27.28;41.21;95076.69;5049295;28;20187;-80
2022/05/15 12:06:26;;;;;;;4.40;2.03;;;;;;;27.35;40.01;95077.84;5051730;28;20241;-78